sensor_id;sensor_type;location;lat;lon;timestamp;pressure;altitude;pressure_sealevel;temperature;humidity
23321;BME280;33376;51.306;4.752;2024-01-16T00:00:28;102070.59;;;1.77;100.00
23321;BME280;33376;51.306;4.752;2024-01-16T00:02:53;102063.63;;;1.79;100.00
23321;BME280;33376;51.306;4.752;2024-01-16T00:05:18;102061.91;;;1.81;100.00
23321;BME280;33376;51.306;4.752;2024-01-16T00:07:44;102048.81;;;1.65;100.00
23321;BME280;33376;51.306;4.752;2024-01-16T00:10:09;102040.97;;;1.81;100.00
23321;BME280;33376;51.306;4.752;2024-01-16T00:12:34;102035.75;;;1.59;100.00
23321;BME280;33376;51.306;4.752;2024-01-16T00:15:00;102038.38;;;1.72;100.00
23321;BME280;33376;51.306;4.752;2024-01-16T00:17:25;102030.50;;;1.59;100.00
23321;BME280;33376;51.306;4.752;2024-01-16T00:19:50;102035.75;;;1.59;100.00
23321;BME280;33376;51.306;4.752;2024-01-16T00:22:16;102038.34;;;1.66;100.00
23321;BME280;33376;51.306;4.752;2024-01-16T00:24:41;102045.31;;;1.55;100.00
23321;BME280;33376;51.306;4.752;2024-01-16T00:27:06;102046.22;;;1.69;100.00
23321;BME280;33376;51.306;4.752;2024-01-16T00:29:31;102054.06;;;1.74;100.00
23321;BME280;33376;51.306;4.752;2024-01-16T00:31:57;102043.59;;;1.80;100.00
23321;BME280;33376;51.306;4.752;2024-01-16T00:34:22;102035.69;;;1.33;100.00
23321;BME280;33376;51.306;4.752;2024-01-16T00:36:47;102064.47;;;1.54;100.00
23321;BME280;33376;51.306;4.752;2024-01-16T00:39:12;102069.72;;;1.56;100.00
23321;BME280;33376;51.306;4.752;2024-01-16T00:41:38;102068.88;;;1.70;100.00
23321;BME280;33376;51.306;4.752;2024-01-16T00:44:04;102058.38;;;1.53;100.00
23321;BME280;33376;51.306;4.752;2024-01-16T00:46:29;102048.81;;;1.56;100.00
23321;BME280;33376;51.306;4.752;2024-01-16T00:48:54;102050.53;;;1.58;100.00
23321;BME280;33376;51.306;4.752;2024-01-16T00:51:19;102057.53;;;1.70;100.00
23321;BME280;33376;51.306;4.752;2024-01-16T00:53:45;102038.38;;;1.78;100.00
23321;BME280;33376;51.306;4.752;2024-01-16T00:56:10;102026.16;;;1.71;100.00
23321;BME280;33376;51.306;4.752;2024-01-16T00:58:35;102028.78;;;1.62;100.00
23321;BME280;33376;51.306;4.752;2024-01-16T01:01:01;102027.00;;;1.55;100.00
23321;BME280;33376;51.306;4.752;2024-01-16T01:03:26;102035.75;;;1.74;100.00
23321;BME280;33376;51.306;4.752;2024-01-16T01:05:51;102034.00;;;1.73;100.00
23321;BME280;33376;51.306;4.752;2024-01-16T01:08:17;102023.56;;;1.83;100.00
23321;BME280;33376;51.306;4.752;2024-01-16T01:10:42;102017.44;;;1.80;100.00
23321;BME280;33376;51.306;4.752;2024-01-16T01:13:07;102008.72;;;1.73;100.00
23321;BME280;33376;51.306;4.752;2024-01-16T01:15:33;101993.91;;;1.57;100.00
23321;BME280;33376;51.306;4.752;2024-01-16T01:17:58;102010.50;;;1.80;100.00
23321;BME280;33376;51.306;4.752;2024-01-16T01:20:23;101995.66;;;1.90;100.00
23321;BME280;33376;51.306;4.752;2024-01-16T01:22:48;101970.38;;;1.89;100.00
23321;BME280;33376;51.306;4.752;2024-01-16T01:25:14;101954.69;;;1.89;100.00
23321;BME280;33376;51.306;4.752;2024-01-16T01:27:39;101932.91;;;1.75;100.00
23321;BME280;33376;51.306;4.752;2024-01-16T01:30:05;101930.31;;;1.72;100.00
23321;BME280;33376;51.306;4.752;2024-01-16T01:32:31;101925.09;;;1.50;100.00
23321;BME280;33376;51.306;4.752;2024-01-16T01:34:56;101947.75;;;1.50;100.00
23321;BME280;33376;51.306;4.752;2024-01-16T01:37:21;101972.13;;;1.31;100.00
23321;BME280;33376;51.306;4.752;2024-01-16T01:39:46;101993.91;;;1.31;100.00
23321;BME280;33376;51.306;4.752;2024-01-16T01:42:12;102012.19;;;1.37;100.00
23321;BME280;33376;51.306;4.752;2024-01-16T01:44:37;102014.78;;;1.28;100.00
23321;BME280;33376;51.306;4.752;2024-01-16T01:47:02;102027.84;;;1.21;100.00
23321;BME280;33376;51.306;4.752;2024-01-16T01:49:28;102035.69;;;1.24;100.00
23321;BME280;33376;51.306;4.752;2024-01-16T01:51:54;102057.41;;;1.14;100.00
23321;BME280;33376;51.306;4.752;2024-01-16T01:54:19;102061.75;;;1.07;100.00
23321;BME280;33376;51.306;4.752;2024-01-16T01:56:46;102067.88;;;1.14;100.00
23321;BME280;33376;51.306;4.752;2024-01-16T01:59:13;102067.78;;;0.97;100.00
23321;BME280;33376;51.306;4.752;2024-01-16T02:01:38;102077.38;;;0.92;100.00
23321;BME280;33376;51.306;4.752;2024-01-16T02:04:04;102098.28;;;0.94;100.00
23321;BME280;33376;51.306;4.752;2024-01-16T02:06:31;102107.81;;;0.90;100.00
23321;BME280;33376;51.306;4.752;2024-01-16T02:08:56;102102.56;;;0.81;100.00
23321;BME280;33376;51.306;4.752;2024-01-16T02:11:22;102114.75;;;0.87;100.00
23321;BME280;33376;51.306;4.752;2024-01-16T02:13:47;102122.47;;;0.67;100.00
23321;BME280;33376;51.306;4.752;2024-01-16T02:16:19;102145.34;;;1.15;100.00
23321;BME280;33376;51.306;4.752;2024-01-16T02:18:45;102141.09;;;1.32;100.00
23321;BME280;33376;51.306;4.752;2024-01-16T02:21:10;102115.63;;;0.84;100.00
23321;BME280;33376;51.306;4.752;2024-01-16T02:23:37;102120.84;;;0.86;100.00
23321;BME280;33376;51.306;4.752;2024-01-16T02:26:02;102118.28;;;0.95;100.00
23321;BME280;33376;51.306;4.752;2024-01-16T02:28:28;102121.00;;;1.20;100.00
23321;BME280;33376;51.306;4.752;2024-01-16T02:30:53;102111.38;;;1.10;100.00
23321;BME280;33376;51.306;4.752;2024-01-16T02:33:19;102097.50;;;1.19;100.00
23321;BME280;33376;51.306;4.752;2024-01-16T02:35:44;102090.53;;;1.18;100.00
23321;BME280;33376;51.306;4.752;2024-01-16T02:38:09;102081.84;;;1.31;100.00
23321;BME280;33376;51.306;4.752;2024-01-16T02:40:35;102069.66;;;1.27;100.00
23321;BME280;33376;51.306;4.752;2024-01-16T02:43:00;102053.91;;;1.09;100.00
23321;BME280;33376;51.306;4.752;2024-01-16T02:45:25;102039.13;;;1.08;100.00
23321;BME280;33376;51.306;4.752;2024-01-16T02:47:51;102040.84;;;1.00;100.00
23321;BME280;33376;51.306;4.752;2024-01-16T02:50:16;102041.75;;;1.09;100.00
23321;BME280;33376;51.306;4.752;2024-01-16T02:52:42;102029.53;;;1.01;100.00
23321;BME280;33376;51.306;4.752;2024-01-16T02:55:07;102024.34;;;1.16;100.00
23321;BME280;33376;51.306;4.752;2024-01-16T02:57:32;102017.34;;;1.03;100.00
23321;BME280;33376;51.306;4.752;2024-01-16T02:59:58;102021.72;;;1.08;100.00
23321;BME280;33376;51.306;4.752;2024-01-16T03:02:23;102007.81;;;1.14;100.00
23321;BME280;33376;51.306;4.752;2024-01-16T03:04:48;101997.28;;;0.81;100.00
23321;BME280;33376;51.306;4.752;2024-01-16T03:07:14;102016.44;;;0.87;100.00
23321;BME280;33376;51.306;4.752;2024-01-16T03:09:39;102019.06;;;0.93;100.00
23321;BME280;33376;51.306;4.752;2024-01-16T03:12:05;102015.47;;;0.70;100.00
23321;BME280;33376;51.306;4.752;2024-01-16T03:14:30;102025.03;;;0.62;100.00
23321;BME280;33376;51.306;4.752;2024-01-16T03:17:00;102038.94;;;0.63;100.00
23321;BME280;33376;51.306;4.752;2024-01-16T03:19:25;102051.16;;;0.65;100.00
23321;BME280;33376;51.306;4.752;2024-01-16T03:21:51;102058.91;;;0.55;100.00
23321;BME280;33376;51.306;4.752;2024-01-16T03:24:16;102062.34;;;0.45;100.00
23321;BME280;33376;51.306;4.752;2024-01-16T03:26:41;102059.81;;;0.60;100.00
23321;BME280;33376;51.306;4.752;2024-01-16T03:29:07;102068.41;;;0.47;100.00
23321;BME280;33376;51.306;4.752;2024-01-16T03:31:32;102068.41;;;0.47;100.00
23321;BME280;33376;51.306;4.752;2024-01-16T03:33:58;102077.13;;;0.49;100.00
23321;BME280;33376;51.306;4.752;2024-01-16T03:36:23;102072.72;;;0.39;100.00
23321;BME280;33376;51.306;4.752;2024-01-16T03:38:48;102077.91;;;0.31;100.00
23321;BME280;33376;51.306;4.752;2024-01-16T03:41:13;102076.91;;;0.14;100.00
23321;BME280;33376;51.306;4.752;2024-01-16T03:43:39;102072.56;;;0.18;100.00
23321;BME280;33376;51.306;4.752;2024-01-16T03:46:04;102082.13;;;0.16;100.00
23321;BME280;33376;51.306;4.752;2024-01-16T03:48:30;102082.97;;;0.13;100.00
23321;BME280;33376;51.306;4.752;2024-01-16T03:50:55;102086.47;;;0.12;100.00
23321;BME280;33376;51.306;4.752;2024-01-16T03:53:21;102092.47;;;0.07;100.00
23321;BME280;33376;51.306;4.752;2024-01-16T03:55:46;102091.72;;;0.18;100.00
23321;BME280;33376;51.306;4.752;2024-01-16T03:58:12;102096.94;;;0.23;100.00
23321;BME280;33376;51.306;4.752;2024-01-16T04:00:37;102098.59;;;0.12;100.00
23321;BME280;33376;51.306;4.752;2024-01-16T04:03:02;102076.91;;;0.11;100.00
23321;BME280;33376;51.306;4.752;2024-01-16T04:05:28;102079.53;;;0.17;100.00
23321;BME280;33376;51.306;4.752;2024-01-16T04:07:53;102076.78;;;-0.03;100.00
23321;BME280;33376;51.306;4.752;2024-01-16T04:10:18;102062.00;;;-0.04;100.00
23321;BME280;33376;51.306;4.752;2024-01-16T04:12:44;102069.84;;;-0.02;100.00
23321;BME280;33376;51.306;4.752;2024-01-16T04:15:09;102055.91;;;-0.03;100.00
23321;BME280;33376;51.306;4.752;2024-01-16T04:17:34;102060.25;;;-0.03;100.00
23321;BME280;33376;51.306;4.752;2024-01-16T04:20:00;102054.97;;;-0.15;100.00
23321;BME280;33376;51.306;4.752;2024-01-16T04:22:25;102055.75;;;-0.24;100.00
23321;BME280;33376;51.306;4.752;2024-01-16T04:24:50;102051.44;;;-0.20;100.00
23321;BME280;33376;51.306;4.752;2024-01-16T04:27:15;102040.09;;;-0.24;100.00
23321;BME280;33376;51.306;4.752;2024-01-16T04:29:41;102046.25;;;-0.17;100.00
23321;BME280;33376;51.306;4.752;2024-01-16T04:32:06;102041.91;;;-0.17;100.00
23321;BME280;33376;51.306;4.752;2024-01-16T04:34:32;102034.91;;;-0.24;100.00
23321;BME280;33376;51.306;4.752;2024-01-16T04:36:57;102028.84;;;-0.21;100.00
23321;BME280;33376;51.306;4.752;2024-01-16T04:39:22;102028.84;;;-0.21;100.00
23321;BME280;33376;51.306;4.752;2024-01-16T04:41:48;102024.56;;;-0.16;100.00
23321;BME280;33376;51.306;4.752;2024-01-16T04:44:16;102019.25;;;-0.25;100.00
23321;BME280;33376;51.306;4.752;2024-01-16T04:46:41;102022.75;;;-0.25;100.00
23321;BME280;33376;51.306;4.752;2024-01-16T04:49:08;102025.34;;;-0.23;100.00
23321;BME280;33376;51.306;4.752;2024-01-16T04:51:35;102016.69;;;-0.19;100.00
23321;BME280;33376;51.306;4.752;2024-01-16T04:54:01;102022.78;;;-0.17;100.00
23321;BME280;33376;51.306;4.752;2024-01-16T04:56:26;102014.03;;;-0.27;100.00
23321;BME280;33376;51.306;4.752;2024-01-16T04:58:52;102007.88;;;-0.35;100.00
23321;BME280;33376;51.306;4.752;2024-01-16T05:01:18;102006.19;;;-0.30;100.00
23321;BME280;33376;51.306;4.752;2024-01-16T05:03:43;101998.38;;;-0.31;100.00
23321;BME280;33376;51.306;4.752;2024-01-16T05:06:12;101989.78;;;-0.20;100.00
23321;BME280;33376;51.306;4.752;2024-01-16T05:08:37;101990.59;;;-0.24;100.00
23321;BME280;33376;51.306;4.752;2024-01-16T05:11:02;101984.44;;;-0.35;100.00
23321;BME280;33376;51.306;4.752;2024-01-16T05:13:28;101974.00;;;-0.38;100.00
23321;BME280;33376;51.306;4.752;2024-01-16T05:15:53;101972.25;;;-0.39;100.00
23321;BME280;33376;51.306;4.752;2024-01-16T05:18:18;101973.94;;;-0.48;100.00
23321;BME280;33376;51.306;4.752;2024-01-16T05:20:44;101991.28;;;-0.47;100.00
23321;BME280;33376;51.306;4.752;2024-01-16T05:23:09;101975.72;;;-0.40;100.00
23321;BME280;33376;51.306;4.752;2024-01-16T05:25:34;101962.63;;;-0.49;100.00
23321;BME280;33376;51.306;4.752;2024-01-16T05:28:00;101968.69;;;-0.50;100.00
23321;BME280;33376;51.306;4.752;2024-01-16T05:30:25;101978.19;;;-0.56;100.00
23321;BME280;33376;51.306;4.752;2024-01-16T05:32:51;101977.38;;;-0.49;100.00
23321;BME280;33376;51.306;4.752;2024-01-16T05:35:17;101966.09;;;-0.51;100.00
23321;BME280;33376;51.306;4.752;2024-01-16T05:37:42;101966.09;;;-0.48;100.00
23321;BME280;33376;51.306;4.752;2024-01-16T05:40:08;101960.03;;;-0.46;100.00
23321;BME280;33376;51.306;4.752;2024-01-16T05:42:33;101958.31;;;-0.44;100.00
23321;BME280;33376;51.306;4.752;2024-01-16T05:44:58;101950.44;;;-0.53;100.00
23321;BME280;33376;51.306;4.752;2024-01-16T05:47:24;101948.69;;;-0.51;100.00
23321;BME280;33376;51.306;4.752;2024-01-16T05:49:52;101948.72;;;-0.49;100.00
23321;BME280;33376;51.306;4.752;2024-01-16T05:52:17;101952.97;;;-0.60;100.00
23321;BME280;33376;51.306;4.752;2024-01-16T05:54:43;101946.94;;;-0.58;100.00
23321;BME280;33376;51.306;4.752;2024-01-16T05:57:08;101931.31;;;-0.58;100.00
23321;BME280;33376;51.306;4.752;2024-01-16T05:59:33;101932.16;;;-0.57;100.00
23321;BME280;33376;51.306;4.752;2024-01-16T06:01:59;101922.59;;;-0.63;100.00
23321;BME280;33376;51.306;4.752;2024-01-16T06:04:24;101920.03;;;-0.55;100.00
23321;BME280;33376;51.306;4.752;2024-01-16T06:06:50;101906.09;;;-0.62;100.00
23321;BME280;33376;51.306;4.752;2024-01-16T06:09:15;101898.28;;;-0.62;100.00
23321;BME280;33376;51.306;4.752;2024-01-16T06:11:41;101899.13;;;-0.64;100.00
23321;BME280;33376;51.306;4.752;2024-01-16T06:14:06;101905.19;;;-0.64;100.00
23321;BME280;33376;51.306;4.752;2024-01-16T06:16:32;101905.28;;;-0.52;100.00
23321;BME280;33376;51.306;4.752;2024-01-16T06:18:57;101893.09;;;-0.54;100.00
23321;BME280;33376;51.306;4.752;2024-01-16T06:21:22;101887.88;;;-0.59;100.00
23321;BME280;33376;51.306;4.752;2024-01-16T06:23:48;101867.06;;;-0.56;100.00
23321;BME280;33376;51.306;4.752;2024-01-16T06:26:13;101869.66;;;-0.59;100.00
23321;BME280;33376;51.306;4.752;2024-01-16T06:28:38;101866.19;;;-0.58;100.00
23321;BME280;33376;51.306;4.752;2024-01-16T06:31:05;101861.81;;;-0.63;100.00
23321;BME280;33376;51.306;4.752;2024-01-16T06:33:30;101873.13;;;-0.58;100.00
23321;BME280;33376;51.306;4.752;2024-01-16T06:35:55;101861.81;;;-0.60;100.00
23321;BME280;33376;51.306;4.752;2024-01-16T06:38:21;101869.66;;;-0.54;100.00
23321;BME280;33376;51.306;4.752;2024-01-16T06:40:46;101874.88;;;-0.54;100.00
23321;BME280;33376;51.306;4.752;2024-01-16T06:43:11;101873.16;;;-0.52;100.00
23321;BME280;33376;51.306;4.752;2024-01-16T06:45:39;101874.91;;;-0.53;100.00
23321;BME280;33376;51.306;4.752;2024-01-16T06:48:05;101873.25;;;-0.40;100.00
23321;BME280;33376;51.306;4.752;2024-01-16T06:50:30;101862.75;;;-0.48;100.00
23321;BME280;33376;51.306;4.752;2024-01-16T06:52:55;101855.03;;;-0.40;100.00
23321;BME280;33376;51.306;4.752;2024-01-16T06:55:20;101843.72;;;-0.44;100.00
23321;BME280;33376;51.306;4.752;2024-01-16T06:57:46;101845.53;;;-0.29;100.00
23321;BME280;33376;51.306;4.752;2024-01-16T07:00:11;101832.38;;;-0.52;100.00
23321;BME280;33376;51.306;4.752;2024-01-16T07:02:37;101843.72;;;-0.44;100.00
23321;BME280;33376;51.306;4.752;2024-01-16T07:05:02;101831.50;;;-0.49;100.00
23321;BME280;33376;51.306;4.752;2024-01-16T07:07:28;101823.69;;;-0.48;100.00
23321;BME280;33376;51.306;4.752;2024-01-16T07:09:53;101823.75;;;-0.40;100.00
23321;BME280;33376;51.306;4.752;2024-01-16T07:12:19;101827.22;;;-0.41;100.00
23321;BME280;33376;51.306;4.752;2024-01-16T07:14:44;101813.28;;;-0.48;100.00
23321;BME280;33376;51.306;4.752;2024-01-16T07:17:09;101806.34;;;-0.50;100.00
23321;BME280;33376;51.306;4.752;2024-01-16T07:19:34;101806.31;;;-0.52;100.00
23321;BME280;33376;51.306;4.752;2024-01-16T07:22:00;101801.16;;;-0.40;100.00
23321;BME280;33376;51.306;4.752;2024-01-16T07:24:25;101797.66;;;-0.45;100.00
23321;BME280;33376;51.306;4.752;2024-01-16T07:26:50;101802.94;;;-0.34;100.00
23321;BME280;33376;51.306;4.752;2024-01-16T07:29:15;101808.16;;;-0.34;100.00
23321;BME280;33376;51.306;4.752;2024-01-16T07:31:41;101795.03;;;-0.48;100.00
23321;BME280;33376;51.306;4.752;2024-01-16T07:34:06;101783.81;;;-0.42;100.00
23321;BME280;33376;51.306;4.752;2024-01-16T07:36:31;101808.13;;;-0.40;100.00
23321;BME280;33376;51.306;4.752;2024-01-16T07:38:57;101799.41;;;-0.48;100.00
23321;BME280;33376;51.306;4.752;2024-01-16T07:41:22;101793.41;;;-0.35;100.00
23321;BME280;33376;51.306;4.752;2024-01-16T07:43:47;101778.63;;;-0.29;100.00
23321;BME280;33376;51.306;4.752;2024-01-16T07:46:13;101773.41;;;-0.36;100.00
23321;BME280;33376;51.306;4.752;2024-01-16T07:48:38;101773.41;;;-0.38;100.00
23321;BME280;33376;51.306;4.752;2024-01-16T07:51:03;101777.78;;;-0.35;100.00
23321;BME280;33376;51.306;4.752;2024-01-16T07:53:29;101767.34;;;-0.32;100.00
23321;BME280;33376;51.306;4.752;2024-01-16T07:55:54;101772.50;;;-0.41;100.00
23321;BME280;33376;51.306;4.752;2024-01-16T07:58:20;101769.97;;;-0.35;100.00
23321;BME280;33376;51.306;4.752;2024-01-16T08:00:45;101768.22;;;-0.29;100.00
23321;BME280;33376;51.306;4.752;2024-01-16T08:03:11;101771.72;;;-0.19;100.00
23321;BME280;33376;51.306;4.752;2024-01-16T08:05:36;101753.44;;;-0.36;100.00
23321;BME280;33376;51.306;4.752;2024-01-16T08:08:02;101757.78;;;-0.32;100.00
23321;BME280;33376;51.306;4.752;2024-01-16T08:10:27;101761.28;;;-0.28;100.00
23321;BME280;33376;51.306;4.752;2024-01-16T08:12:52;101759.59;;;-0.11;100.00
23321;BME280;33376;51.306;4.752;2024-01-16T08:15:17;101760.47;;;-0.15;100.00
23321;BME280;33376;51.306;4.752;2024-01-16T08:17:43;101765.69;;;-0.08;100.00
23321;BME280;33376;51.306;4.752;2024-01-16T08:20:08;101765.66;;;-0.20;100.00
23321;BME280;33376;51.306;4.752;2024-01-16T08:22:37;101767.47;;;0.04;100.00
23321;BME280;33376;51.306;4.752;2024-01-16T08:25:03;101744.00;;;0.01;100.00
23321;BME280;33376;51.306;4.752;2024-01-16T08:27:30;101725.75;;;-0.01;100.00
23321;BME280;33376;51.306;4.752;2024-01-16T08:29:55;101701.47;;;0.10;100.00
23321;BME280;33376;51.306;4.752;2024-01-16T08:32:21;101688.41;;;0.02;100.00
23321;BME280;33376;51.306;4.752;2024-01-16T08:34:46;101688.44;;;0.10;100.00
23321;BME280;33376;51.306;4.752;2024-01-16T08:37:11;101671.91;;;0.00;100.00
23321;BME280;33376;51.306;4.752;2024-01-16T08:39:36;101670.19;;;0.10;100.00
23321;BME280;33376;51.306;4.752;2024-01-16T08:42:02;101656.22;;;-0.02;100.00
23321;BME280;33376;51.306;4.752;2024-01-16T08:44:28;101654.53;;;0.17;100.00
23321;BME280;33376;51.306;4.752;2024-01-16T08:46:54;101643.22;;;0.26;100.00
23321;BME280;33376;51.306;4.752;2024-01-16T08:49:19;101626.72;;;0.04;100.00
23321;BME280;33376;51.306;4.752;2024-01-16T08:51:45;101598.03;;;0.13;100.00
23321;BME280;33376;51.306;4.752;2024-01-16T08:54:10;101604.09;;;0.20;100.00
23321;BME280;33376;51.306;4.752;2024-01-16T08:56:35;101611.91;;;0.26;100.00
23321;BME280;33376;51.306;4.752;2024-01-16T08:59:01;101608.44;;;0.36;100.00
23321;BME280;33376;51.306;4.752;2024-01-16T09:01:26;101609.28;;;0.57;100.00
23321;BME280;33376;51.306;4.752;2024-01-16T09:03:51;101578.88;;;0.41;100.00
23321;BME280;33376;51.306;4.752;2024-01-16T09:06:17;101568.41;;;0.53;100.00
23321;BME280;33376;51.306;4.752;2024-01-16T09:08:42;101542.38;;;0.44;100.00
23321;BME280;33376;51.306;4.752;2024-01-16T09:11:09;101518.91;;;0.35;100.00
23321;BME280;33376;51.306;4.752;2024-01-16T09:13:34;101505.88;;;0.38;100.00
23321;BME280;33376;51.306;4.752;2024-01-16T09:16:00;101484.16;;;0.26;100.00
23321;BME280;33376;51.306;4.752;2024-01-16T09:18:25;101485.91;;;0.27;100.00
23321;BME280;33376;51.306;4.752;2024-01-16T09:20:50;101499.72;;;0.57;100.00
23321;BME280;33376;51.306;4.752;2024-01-16T09:23:15;101491.91;;;0.57;100.00
23321;BME280;33376;51.306;4.752;2024-01-16T09:25:41;101456.31;;;0.38;100.00
23321;BME280;33376;51.306;4.752;2024-01-16T09:28:06;101454.59;;;0.34;100.00
23321;BME280;33376;51.306;4.752;2024-01-16T09:30:31;101452.75;;;0.62;100.00
23321;BME280;33376;51.306;4.752;2024-01-16T09:32:58;101432.00;;;0.35;100.00
23321;BME280;33376;51.306;4.752;2024-01-16T09:35:23;101421.56;;;0.30;100.00
23321;BME280;33376;51.306;4.752;2024-01-16T09:37:49;101421.63;;;0.17;100.00
23321;BME280;33376;51.306;4.752;2024-01-16T09:40:14;101434.63;;;0.21;100.00
23321;BME280;33376;51.306;4.752;2024-01-16T09:42:40;101447.72;;;0.08;100.00
23321;BME280;33376;51.306;4.752;2024-01-16T09:45:06;101431.19;;;0.07;100.00
23321;BME280;33376;51.306;4.752;2024-01-16T09:47:32;101430.31;;;0.07;100.00
23321;BME280;33376;51.306;4.752;2024-01-16T09:49:59;101415.53;;;0.12;100.00
23321;BME280;33376;51.306;4.752;2024-01-16T09:52:24;101419.88;;;0.16;100.00
23321;BME280;33376;51.306;4.752;2024-01-16T09:54:50;101407.72;;;0.10;100.00
23321;BME280;33376;51.306;4.752;2024-01-16T09:57:15;101407.69;;;0.22;100.00
23321;BME280;33376;51.306;4.752;2024-01-16T09:59:43;101383.41;;;0.13;100.00
23321;BME280;33376;51.306;4.752;2024-01-16T10:02:09;101380.66;;;0.35;100.00
23321;BME280;33376;51.306;4.752;2024-01-16T10:04:35;101372.88;;;0.29;100.00
23321;BME280;33376;51.306;4.752;2024-01-16T10:07:01;101366.81;;;0.30;100.00
23321;BME280;33376;51.306;4.752;2024-01-16T10:09:27;101349.41;;;0.32;100.00
23321;BME280;33376;51.306;4.752;2024-01-16T10:11:52;101342.38;;;0.43;100.00
23321;BME280;33376;51.306;4.752;2024-01-16T10:14:18;101340.69;;;0.39;100.00
23321;BME280;33376;51.306;4.752;2024-01-16T10:16:56;101357.19;;;0.41;100.00
23321;BME280;33376;51.306;4.752;2024-01-16T10:19:28;101335.47;;;0.41;100.00
23321;BME280;33376;51.306;4.752;2024-01-16T10:22:19;101328.53;;;0.40;100.00
23321;BME280;33376;51.306;4.752;2024-01-16T10:24:40;101335.50;;;0.32;100.00
23321;BME280;33376;51.306;4.752;2024-01-16T10:27:05;101327.59;;;0.47;100.00
23321;BME280;33376;51.306;4.752;2024-01-16T10:29:33;101335.38;;;0.57;100.00
23321;BME280;33376;51.306;4.752;2024-01-16T10:32:00;101317.19;;;0.42;100.00
23321;BME280;33376;51.306;4.752;2024-01-16T10:34:25;101303.25;;;0.43;100.00
23321;BME280;33376;51.306;4.752;2024-01-16T10:36:51;101307.56;;;0.52;100.00
23321;BME280;33376;51.306;4.752;2024-01-16T10:39:19;101310.19;;;0.49;100.00
23321;BME280;33376;51.306;4.752;2024-01-16T10:42:02;101305.78;;;0.60;100.00
23321;BME280;33376;51.306;4.752;2024-01-16T10:44:27;101275.31;;;0.62;100.00
23321;BME280;33376;51.306;4.752;2024-01-16T10:47:09;101259.63;;;0.66;100.00
23321;BME280;33376;51.306;4.752;2024-01-16T10:49:35;101252.72;;;0.64;100.00
23321;BME280;33376;51.306;4.752;2024-01-16T10:52:00;101219.63;;;0.64;100.00
23321;BME280;33376;51.306;4.752;2024-01-16T10:54:26;101185.66;;;0.73;100.00
23321;BME280;33376;51.306;4.752;2024-01-16T10:56:52;101165.66;;;0.71;100.00
23321;BME280;33376;51.306;4.752;2024-01-16T10:59:19;101154.38;;;0.67;100.00
23321;BME280;33376;51.306;4.752;2024-01-16T11:01:49;101156.91;;;0.78;100.00
23321;BME280;33376;51.306;4.752;2024-01-16T11:04:16;101149.91;;;0.81;100.00
23321;BME280;33376;51.306;4.752;2024-01-16T11:06:42;101156.72;;;0.94;100.00
23321;BME280;33376;51.306;4.752;2024-01-16T11:09:08;101170.78;;;0.83;100.00
23321;BME280;33376;51.306;4.752;2024-01-16T11:11:34;101168.97;;;0.88;100.00
23321;BME280;33376;51.306;4.752;2024-01-16T11:14:01;101153.31;;;0.89;100.00
23321;BME280;33376;51.306;4.752;2024-01-16T11:16:28;101126.28;;;0.93;100.00
23321;BME280;33376;51.306;4.752;2024-01-16T11:18:54;101116.63;;;1.01;100.00
23321;BME280;33376;51.306;4.752;2024-01-16T11:21:19;101119.03;;;1.18;100.00
23321;BME280;33376;51.306;4.752;2024-01-16T11:23:45;101134.00;;;1.02;100.00
23321;BME280;33376;51.306;4.752;2024-01-16T11:26:26;101123.44;;;1.13;100.00
23321;BME280;33376;51.306;4.752;2024-01-16T11:28:52;101128.75;;;1.07;100.00
23321;BME280;33376;51.306;4.752;2024-01-16T11:31:29;101110.41;;;1.11;100.00
23321;BME280;33376;51.306;4.752;2024-01-16T11:33:55;101118.28;;;1.10;100.00
23321;BME280;33376;51.306;4.752;2024-01-16T11:37:03;101118.22;;;1.13;100.00
23321;BME280;33376;51.306;4.752;2024-01-16T11:39:16;101116.38;;;1.21;100.00
23321;BME280;33376;51.306;4.752;2024-01-16T11:41:47;101112.84;;;1.25;100.00
23321;BME280;33376;51.306;4.752;2024-01-16T11:44:35;101117.22;;;1.24;100.00
23321;BME280;33376;51.306;4.752;2024-01-16T11:47:01;101112.78;;;1.28;100.00
23321;BME280;33376;51.306;4.752;2024-01-16T11:49:27;101110.81;;;1.48;100.00
23321;BME280;33376;51.306;4.752;2024-01-16T11:51:52;101121.25;;;1.48;100.00
23321;BME280;33376;51.306;4.752;2024-01-16T11:54:18;101108.06;;;1.56;100.00
23321;BME280;33376;51.306;4.752;2024-01-16T11:59:32;101099.66;;;1.35;100.00
23321;BME280;33376;51.306;4.752;2024-01-16T12:02:02;101097.75;;;1.46;100.00
23321;BME280;33376;51.306;4.752;2024-01-16T12:04:34;101098.81;;;1.33;100.00
23321;BME280;33376;51.306;4.752;2024-01-16T12:06:59;101089.97;;;1.43;100.00
23321;BME280;33376;51.306;4.752;2024-01-16T12:09:25;101084.66;;;1.49;100.00
23321;BME280;33376;51.306;4.752;2024-01-16T12:11:57;101080.25;;;1.53;100.00
23321;BME280;33376;51.306;4.752;2024-01-16T12:14:31;101074.81;;;1.67;100.00
23321;BME280;33376;51.306;4.752;2024-01-16T12:17:12;101081.75;;;1.71;100.00
23321;BME280;33376;51.306;4.752;2024-01-16T12:19:37;101073.69;;;1.83;100.00
23321;BME280;33376;51.306;4.752;2024-01-16T12:22:05;101067.63;;;1.81;100.00
23321;BME280;33376;51.306;4.752;2024-01-16T12:24:33;101071.09;;;1.83;100.00
23321;BME280;33376;51.306;4.752;2024-01-16T12:26:58;101072.50;;;2.02;100.00
23321;BME280;33376;51.306;4.752;2024-01-16T12:29:23;101073.56;;;1.90;100.00
23321;BME280;33376;51.306;4.752;2024-01-16T12:31:49;101087.44;;;1.95;100.00
23321;BME280;33376;51.306;4.752;2024-01-16T12:34:14;101104.81;;;1.99;100.00
23321;BME280;33376;51.306;4.752;2024-01-16T12:36:40;101108.03;;;2.15;100.00
23321;BME280;33376;51.306;4.752;2024-01-16T12:39:05;101107.34;;;2.04;100.00
23321;BME280;33376;51.306;4.752;2024-01-16T12:41:32;101102.84;;;2.13;100.00